sensor_id;sensor_type;location;lat;lon;timestamp;temperature;humidity
3816;DHT22;1923;48.154;11.536;2022-07-30T00:02:09;18.70;99.90
3816;DHT22;1923;48.154;11.536;2022-07-30T00:04:38;18.60;99.90
3816;DHT22;1923;48.154;11.536;2022-07-30T00:07:06;18.70;99.90
3816;DHT22;1923;48.154;11.536;2022-07-30T00:09:34;18.70;99.90
3816;DHT22;1923;48.154;11.536;2022-07-30T00:12:02;18.80;99.90
3816;DHT22;1923;48.154;11.536;2022-07-30T00:14:31;18.80;99.90
3816;DHT22;1923;48.154;11.536;2022-07-30T00:17:00;18.70;99.90
3816;DHT22;1923;48.154;11.536;2022-07-30T00:19:31;18.80;99.90
3816;DHT22;1923;48.154;11.536;2022-07-30T00:21:59;18.70;99.90
3816;DHT22;1923;48.154;11.536;2022-07-30T00:24:27;18.80;99.90
3816;DHT22;1923;48.154;11.536;2022-07-30T00:26:55;18.70;99.90
3816;DHT22;1923;48.154;11.536;2022-07-30T00:29:23;18.90;99.90
3816;DHT22;1923;48.154;11.536;2022-07-30T00:31:52;18.90;99.90
3816;DHT22;1923;48.154;11.536;2022-07-30T00:34:20;18.90;99.90
3816;DHT22;1923;48.154;11.536;2022-07-30T00:36:49;18.90;99.90
3816;DHT22;1923;48.154;11.536;2022-07-30T00:39:18;18.90;99.90
3816;DHT22;1923;48.154;11.536;2022-07-30T00:41:54;18.90;99.90
3816;DHT22;1923;48.154;11.536;2022-07-30T00:44:22;18.90;99.90
3816;DHT22;1923;48.154;11.536;2022-07-30T00:46:51;18.80;99.90
3816;DHT22;1923;48.154;11.536;2022-07-30T00:49:19;18.80;99.90
3816;DHT22;1923;48.154;11.536;2022-07-30T00:51:48;18.90;99.90
3816;DHT22;1923;48.154;11.536;2022-07-30T00:54:18;18.80;99.90
3816;DHT22;1923;48.154;11.536;2022-07-30T00:56:49;18.70;99.90
3816;DHT22;1923;48.154;11.536;2022-07-30T00:59:18;18.80;99.90
3816;DHT22;1923;48.154;11.536;2022-07-30T01:01:47;18.80;99.90
3816;DHT22;1923;48.154;11.536;2022-07-30T01:04:15;18.90;99.90
3816;DHT22;1923;48.154;11.536;2022-07-30T01:06:43;18.80;99.90
3816;DHT22;1923;48.154;11.536;2022-07-30T01:09:11;18.80;99.90
3816;DHT22;1923;48.154;11.536;2022-07-30T01:11:41;18.90;99.90
3816;DHT22;1923;48.154;11.536;2022-07-30T01:14:10;18.90;99.90
3816;DHT22;1923;48.154;11.536;2022-07-30T01:16:40;18.90;99.90
3816;DHT22;1923;48.154;11.536;2022-07-30T01:19:13;19.00;99.90
3816;DHT22;1923;48.154;11.536;2022-07-30T01:22:08;18.90;99.90
3816;DHT22;1923;48.154;11.536;2022-07-30T01:24:40;19.00;99.90
3816;DHT22;1923;48.154;11.536;2022-07-30T01:27:12;18.90;99.90
3816;DHT22;1923;48.154;11.536;2022-07-30T01:29:45;18.90;99.90
3816;DHT22;1923;48.154;11.536;2022-07-30T01:32:16;19.00;99.90
3816;DHT22;1923;48.154;11.536;2022-07-30T01:34:46;18.90;99.90
3816;DHT22;1923;48.154;11.536;2022-07-30T01:37:14;19.00;99.90
3816;DHT22;1923;48.154;11.536;2022-07-30T01:39:46;19.00;99.90
3816;DHT22;1923;48.154;11.536;2022-07-30T01:42:18;19.10;99.90
3816;DHT22;1923;48.154;11.536;2022-07-30T01:44:47;19.00;99.90
3816;DHT22;1923;48.154;11.536;2022-07-30T01:47:17;19.00;99.90
3816;DHT22;1923;48.154;11.536;2022-07-30T01:49:48;19.10;99.90
3816;DHT22;1923;48.154;11.536;2022-07-30T01:52:17;19.10;99.90
3816;DHT22;1923;48.154;11.536;2022-07-30T01:54:50;19.10;99.90
3816;DHT22;1923;48.154;11.536;2022-07-30T01:57:21;19.10;99.90
3816;DHT22;1923;48.154;11.536;2022-07-30T01:59:53;19.10;99.90
3816;DHT22;1923;48.154;11.536;2022-07-30T02:02:21;19.00;99.90
3816;DHT22;1923;48.154;11.536;2022-07-30T02:04:49;19.00;99.90
3816;DHT22;1923;48.154;11.536;2022-07-30T02:07:23;19.00;99.90
3816;DHT22;1923;48.154;11.536;2022-07-30T02:09:58;19.00;99.90
3816;DHT22;1923;48.154;11.536;2022-07-30T02:12:30;19.10;99.90
3816;DHT22;1923;48.154;11.536;2022-07-30T02:15:08;19.10;99.90
3816;DHT22;1923;48.154;11.536;2022-07-30T02:17:41;19.20;99.90
3816;DHT22;1923;48.154;11.536;2022-07-30T02:20:12;19.20;99.90
3816;DHT22;1923;48.154;11.536;2022-07-30T02:22:44;19.20;99.90
3816;DHT22;1923;48.154;11.536;2022-07-30T02:25:16;19.10;99.90
3816;DHT22;1923;48.154;11.536;2022-07-30T02:27:51;19.10;99.90
3816;DHT22;1923;48.154;11.536;2022-07-30T02:30:22;19.10;99.90
3816;DHT22;1923;48.154;11.536;2022-07-30T02:32:56;19.10;99.90
3816;DHT22;1923;48.154;11.536;2022-07-30T02:35:28;19.10;99.90
3816;DHT22;1923;48.154;11.536;2022-07-30T02:37:59;19.10;99.90
3816;DHT22;1923;48.154;11.536;2022-07-30T02:40:28;19.10;99.90
3816;DHT22;1923;48.154;11.536;2022-07-30T02:42:58;19.10;99.90
3816;DHT22;1923;48.154;11.536;2022-07-30T02:45:28;19.10;99.90
3816;DHT22;1923;48.154;11.536;2022-07-30T02:48:03;19.10;99.90
3816;DHT22;1923;48.154;11.536;2022-07-30T02:50:33;19.10;99.90
3816;DHT22;1923;48.154;11.536;2022-07-30T02:53:04;19.00;99.90
3816;DHT22;1923;48.154;11.536;2022-07-30T02:55:35;19.00;99.90
3816;DHT22;1923;48.154;11.536;2022-07-30T02:58:06;18.90;99.90
3816;DHT22;1923;48.154;11.536;2022-07-30T03:00:36;18.90;99.90
3816;DHT22;1923;48.154;11.536;2022-07-30T03:03:06;18.90;99.90
3816;DHT22;1923;48.154;11.536;2022-07-30T03:05:35;18.90;99.90
3816;DHT22;1923;48.154;11.536;2022-07-30T03:08:05;18.90;99.90
3816;DHT22;1923;48.154;11.536;2022-07-30T03:10:35;18.90;99.90
3816;DHT22;1923;48.154;11.536;2022-07-30T03:13:06;18.90;99.90
3816;DHT22;1923;48.154;11.536;2022-07-30T03:15:39;18.90;99.90
3816;DHT22;1923;48.154;11.536;2022-07-30T03:18:11;18.90;99.90
3816;DHT22;1923;48.154;11.536;2022-07-30T03:20:40;18.90;99.90
3816;DHT22;1923;48.154;11.536;2022-07-30T03:23:11;18.90;99.90
3816;DHT22;1923;48.154;11.536;2022-07-30T03:25:46;18.90;99.90
3816;DHT22;1923;48.154;11.536;2022-07-30T03:28:17;18.90;99.90
3816;DHT22;1923;48.154;11.536;2022-07-30T03:30:46;18.90;99.90
3816;DHT22;1923;48.154;11.536;2022-07-30T03:33:15;18.90;99.90
3816;DHT22;1923;48.154;11.536;2022-07-30T03:35:45;19.00;99.90
3816;DHT22;1923;48.154;11.536;2022-07-30T03:38:15;19.00;99.90
3816;DHT22;1923;48.154;11.536;2022-07-30T03:40:44;19.10;99.90
3816;DHT22;1923;48.154;11.536;2022-07-30T03:43:13;19.20;99.90
3816;DHT22;1923;48.154;11.536;2022-07-30T03:46:02;19.20;99.90
3816;DHT22;1923;48.154;11.536;2022-07-30T03:48:32;19.10;99.90
3816;DHT22;1923;48.154;11.536;2022-07-30T03:51:01;19.10;99.90
3816;DHT22;1923;48.154;11.536;2022-07-30T03:53:31;19.10;99.90
3816;DHT22;1923;48.154;11.536;2022-07-30T03:55:59;19.10;99.90
3816;DHT22;1923;48.154;11.536;2022-07-30T03:58:27;19.10;99.90
3816;DHT22;1923;48.154;11.536;2022-07-30T04:01:03;19.10;99.90
3816;DHT22;1923;48.154;11.536;2022-07-30T04:03:32;19.10;99.90
3816;DHT22;1923;48.154;11.536;2022-07-30T04:06:00;19.10;99.90
3816;DHT22;1923;48.154;11.536;2022-07-30T04:08:29;19.20;99.90
3816;DHT22;1923;48.154;11.536;2022-07-30T04:10:57;19.20;99.90
3816;DHT22;1923;48.154;11.536;2022-07-30T04:13:25;19.30;99.90
3816;DHT22;1923;48.154;11.536;2022-07-30T04:15:58;19.30;99.90
3816;DHT22;1923;48.154;11.536;2022-07-30T04:18:51;19.30;99.90
3816;DHT22;1923;48.154;11.536;2022-07-30T04:21:22;19.20;99.90
3816;DHT22;1923;48.154;11.536;2022-07-30T04:23:51;19.30;99.90
3816;DHT22;1923;48.154;11.536;2022-07-30T04:26:33;19.20;99.90
3816;DHT22;1923;48.154;11.536;2022-07-30T04:29:04;19.30;99.90
3816;DHT22;1923;48.154;11.536;2022-07-30T04:31:32;19.30;99.90
3816;DHT22;1923;48.154;11.536;2022-07-30T04:34:12;19.40;99.90
3816;DHT22;1923;48.154;11.536;2022-07-30T04:36:41;19.40;99.90
3816;DHT22;1923;48.154;11.536;2022-07-30T04:41:52;19.40;99.90
3816;DHT22;1923;48.154;11.536;2022-07-30T04:44:40;19.40;99.90
3816;DHT22;1923;48.154;11.536;2022-07-30T04:47:08;19.50;99.90
3816;DHT22;1923;48.154;11.536;2022-07-30T04:49:38;19.40;99.90
3816;DHT22;1923;48.154;11.536;2022-07-30T04:52:08;19.50;99.90
3816;DHT22;1923;48.154;11.536;2022-07-30T04:54:40;19.50;99.90
3816;DHT22;1923;48.154;11.536;2022-07-30T04:57:12;19.50;99.90
3816;DHT22;1923;48.154;11.536;2022-07-30T04:59:40;19.50;99.90
3816;DHT22;1923;48.154;11.536;2022-07-30T05:02:10;19.50;99.90
3816;DHT22;1923;48.154;11.536;2022-07-30T05:04:40;19.40;99.90
3816;DHT22;1923;48.154;11.536;2022-07-30T05:07:11;19.60;99.90
3816;DHT22;1923;48.154;11.536;2022-07-30T05:09:40;19.60;99.90
3816;DHT22;1923;48.154;11.536;2022-07-30T05:12:09;19.60;99.90
3816;DHT22;1923;48.154;11.536;2022-07-30T05:14:37;19.70;99.90
3816;DHT22;1923;48.154;11.536;2022-07-30T05:17:05;19.60;99.90
3816;DHT22;1923;48.154;11.536;2022-07-30T05:19:33;19.70;99.90
3816;DHT22;1923;48.154;11.536;2022-07-30T05:22:04;19.70;99.90
3816;DHT22;1923;48.154;11.536;2022-07-30T05:24:32;19.70;99.90
3816;DHT22;1923;48.154;11.536;2022-07-30T05:27:00;19.60;99.90
3816;DHT22;1923;48.154;11.536;2022-07-30T05:29:29;19.60;99.90
3816;DHT22;1923;48.154;11.536;2022-07-30T05:31:57;19.80;99.90
3816;DHT22;1923;48.154;11.536;2022-07-30T05:34:29;19.80;99.90
3816;DHT22;1923;48.154;11.536;2022-07-30T05:36:57;19.80;99.90
3816;DHT22;1923;48.154;11.536;2022-07-30T05:39:27;19.80;99.90
3816;DHT22;1923;48.154;11.536;2022-07-30T05:41:55;19.90;99.90
3816;DHT22;1923;48.154;11.536;2022-07-30T05:44:23;20.00;99.90
3816;DHT22;1923;48.154;11.536;2022-07-30T05:46:51;20.00;99.90
3816;DHT22;1923;48.154;11.536;2022-07-30T05:49:19;20.10;99.90
3816;DHT22;1923;48.154;11.536;2022-07-30T05:51:47;20.00;99.90
3816;DHT22;1923;48.154;11.536;2022-07-30T05:54:16;20.00;99.90
3816;DHT22;1923;48.154;11.536;2022-07-30T05:56:45;20.10;99.90
3816;DHT22;1923;48.154;11.536;2022-07-30T05:59:13;20.00;99.90
3816;DHT22;1923;48.154;11.536;2022-07-30T06:01:41;20.10;99.90
3816;DHT22;1923;48.154;11.536;2022-07-30T06:04:09;20.10;99.90
3816;DHT22;1923;48.154;11.536;2022-07-30T06:06:37;20.10;99.90
3816;DHT22;1923;48.154;11.536;2022-07-30T06:09:05;20.20;99.90
3816;DHT22;1923;48.154;11.536;2022-07-30T06:11:33;20.20;99.90
3816;DHT22;1923;48.154;11.536;2022-07-30T06:14:03;20.30;99.90
3816;DHT22;1923;48.154;11.536;2022-07-30T06:16:31;20.30;99.90
3816;DHT22;1923;48.154;11.536;2022-07-30T06:18:59;20.40;99.90
3816;DHT22;1923;48.154;11.536;2022-07-30T06:21:27;20.50;99.90
3816;DHT22;1923;48.154;11.536;2022-07-30T06:24:15;20.50;99.90
3816;DHT22;1923;48.154;11.536;2022-07-30T06:26:43;20.60;99.90
3816;DHT22;1923;48.154;11.536;2022-07-30T06:29:12;20.70;99.90
3816;DHT22;1923;48.154;11.536;2022-07-30T06:31:40;20.60;99.90
3816;DHT22;1923;48.154;11.536;2022-07-30T06:34:08;20.60;99.90
3816;DHT22;1923;48.154;11.536;2022-07-30T06:36:36;20.50;99.90
3816;DHT22;1923;48.154;11.536;2022-07-30T06:39:04;20.60;99.90
3816;DHT22;1923;48.154;11.536;2022-07-30T06:41:32;20.60;99.90
3816;DHT22;1923;48.154;11.536;2022-07-30T06:44:01;20.70;99.90
3816;DHT22;1923;48.154;11.536;2022-07-30T06:46:30;20.60;99.90
3816;DHT22;1923;48.154;11.536;2022-07-30T06:48:58;20.70;99.90
3816;DHT22;1923;48.154;11.536;2022-07-30T06:51:26;20.70;99.90
3816;DHT22;1923;48.154;11.536;2022-07-30T06:53:54;20.70;99.90
3816;DHT22;1923;48.154;11.536;2022-07-30T06:56:22;20.70;99.90
3816;DHT22;1923;48.154;11.536;2022-07-30T06:58:50;20.60;99.90
3816;DHT22;1923;48.154;11.536;2022-07-30T07:01:18;20.80;99.90
3816;DHT22;1923;48.154;11.536;2022-07-30T07:03:50;21.00;99.90
3816;DHT22;1923;48.154;11.536;2022-07-30T07:06:18;21.30;99.90
3816;DHT22;1923;48.154;11.536;2022-07-30T07:08:46;21.50;99.90
3816;DHT22;1923;48.154;11.536;2022-07-30T07:11:14;21.80;99.90
3816;DHT22;1923;48.154;11.536;2022-07-30T07:13:42;21.90;99.90
3816;DHT22;1923;48.154;11.536;2022-07-30T07:16:10;22.10;99.90
3816;DHT22;1923;48.154;11.536;2022-07-30T07:18:38;22.20;99.90
3816;DHT22;1923;48.154;11.536;2022-07-30T07:21:08;22.30;99.90
3816;DHT22;1923;48.154;11.536;2022-07-30T07:23:36;22.40;99.90
3816;DHT22;1923;48.154;11.536;2022-07-30T07:26:09;22.50;99.90
3816;DHT22;1923;48.154;11.536;2022-07-30T07:28:37;22.50;99.90
3816;DHT22;1923;48.154;11.536;2022-07-30T07:31:06;22.50;99.90
3816;DHT22;1923;48.154;11.536;2022-07-30T07:33:35;22.60;99.90
3816;DHT22;1923;48.154;11.536;2022-07-30T07:36:03;22.70;99.90
3816;DHT22;1923;48.154;11.536;2022-07-30T07:38:33;22.80;99.90
3816;DHT22;1923;48.154;11.536;2022-07-30T07:41:02;22.90;99.90
3816;DHT22;1923;48.154;11.536;2022-07-30T07:43:31;23.00;99.90
3816;DHT22;1923;48.154;11.536;2022-07-30T07:45:59;23.20;99.90
3816;DHT22;1923;48.154;11.536;2022-07-30T07:48:27;23.50;99.90
3816;DHT22;1923;48.154;11.536;2022-07-30T07:50:55;23.70;99.90
3816;DHT22;1923;48.154;11.536;2022-07-30T07:53:26;23.90;99.90
3816;DHT22;1923;48.154;11.536;2022-07-30T07:55:55;24.00;99.90
3816;DHT22;1923;48.154;11.536;2022-07-30T07:58:24;24.30;99.90
3816;DHT22;1923;48.154;11.536;2022-07-30T08:00:52;24.60;99.90
3816;DHT22;1923;48.154;11.536;2022-07-30T08:03:21;25.10;99.90
3816;DHT22;1923;48.154;11.536;2022-07-30T08:05:49;25.40;99.90
3816;DHT22;1923;48.154;11.536;2022-07-30T08:08:32;25.60;99.90
3816;DHT22;1923;48.154;11.536;2022-07-30T08:11:05;25.50;99.90
3816;DHT22;1923;48.154;11.536;2022-07-30T08:13:33;25.60;99.90
3816;DHT22;1923;48.154;11.536;2022-07-30T08:16:18;25.40;99.90
3816;DHT22;1923;48.154;11.536;2022-07-30T08:18:46;25.50;99.90
3816;DHT22;1923;48.154;11.536;2022-07-30T08:21:14;25.30;99.90
3816;DHT22;1923;48.154;11.536;2022-07-30T08:23:42;25.20;99.90
3816;DHT22;1923;48.154;11.536;2022-07-30T08:26:12;25.40;99.90
3816;DHT22;1923;48.154;11.536;2022-07-30T08:28:41;25.50;99.90
3816;DHT22;1923;48.154;11.536;2022-07-30T08:31:11;25.90;99.90
3816;DHT22;1923;48.154;11.536;2022-07-30T08:33:39;25.80;99.90
3816;DHT22;1923;48.154;11.536;2022-07-30T08:36:07;26.30;99.90
3816;DHT22;1923;48.154;11.536;2022-07-30T08:38:36;26.40;99.90
3816;DHT22;1923;48.154;11.536;2022-07-30T08:41:04;26.70;99.90
3816;DHT22;1923;48.154;11.536;2022-07-30T08:43:35;27.20;99.90
3816;DHT22;1923;48.154;11.536;2022-07-30T08:46:04;28.00;99.90
3816;DHT22;1923;48.154;11.536;2022-07-30T08:48:35;27.90;99.20
3816;DHT22;1923;48.154;11.536;2022-07-30T08:51:04;28.00;99.20
3816;DHT22;1923;48.154;11.536;2022-07-30T08:53:33;28.20;97.90
3816;DHT22;1923;48.154;11.536;2022-07-30T08:56:02;28.30;97.70
3816;DHT22;1923;48.154;11.536;2022-07-30T08:58:32;28.60;96.70
3816;DHT22;1923;48.154;11.536;2022-07-30T09:01:04;29.10;96.80
3816;DHT22;1923;48.154;11.536;2022-07-30T09:03:35;29.50;95.60
3816;DHT22;1923;48.154;11.536;2022-07-30T09:06:10;29.40;95.40
3816;DHT22;1923;48.154;11.536;2022-07-30T09:08:38;29.10;95.40
3816;DHT22;1923;48.154;11.536;2022-07-30T09:11:06;29.00;95.40
3816;DHT22;1923;48.154;11.536;2022-07-30T09:13:37;28.60;95.80
3816;DHT22;1923;48.154;11.536;2022-07-30T09:16:19;28.40;96.00
3816;DHT22;1923;48.154;11.536;2022-07-30T09:18:47;28.20;95.70
3816;DHT22;1923;48.154;11.536;2022-07-30T09:21:17;27.80;95.40
3816;DHT22;1923;48.154;11.536;2022-07-30T09:23:55;27.80;94.80
3816;DHT22;1923;48.154;11.536;2022-07-30T09:26:24;28.00;94.90
3816;DHT22;1923;48.154;11.536;2022-07-30T09:28:52;28.20;93.80
3816;DHT22;1923;48.154;11.536;2022-07-30T09:31:21;28.40;93.60
3816;DHT22;1923;48.154;11.536;2022-07-30T09:33:50;28.50;93.70
3816;DHT22;1923;48.154;11.536;2022-07-30T09:36:18;28.50;93.20
3816;DHT22;1923;48.154;11.536;2022-07-30T09:38:48;28.80;93.00
3816;DHT22;1923;48.154;11.536;2022-07-30T09:41:19;29.40;93.00
3816;DHT22;1923;48.154;11.536;2022-07-30T09:44:05;29.30;90.90
3816;DHT22;1923;48.154;11.536;2022-07-30T09:46:42;30.70;89.30
3816;DHT22;1923;48.154;11.536;2022-07-30T09:49:14;32.50;87.30
3816;DHT22;1923;48.154;11.536;2022-07-30T09:51:43;33.40;79.90
3816;DHT22;1923;48.154;11.536;2022-07-30T09:54:22;34.30;78.80
3816;DHT22;1923;48.154;11.536;2022-07-30T09:57:03;35.80;74.70
3816;DHT22;1923;48.154;11.536;2022-07-30T09:59:52;37.10;70.60
3816;DHT22;1923;48.154;11.536;2022-07-30T10:02:28;37.10;66.10
3816;DHT22;1923;48.154;11.536;2022-07-30T10:05:11;37.80;63.30
3816;DHT22;1923;48.154;11.536;2022-07-30T10:07:48;38.30;60.50
3816;DHT22;1923;48.154;11.536;2022-07-30T10:10:20;36.80;60.10
3816;DHT22;1923;48.154;11.536;2022-07-30T10:12:53;36.50;61.40
3816;DHT22;1923;48.154;11.536;2022-07-30T10:15:24;36.70;62.00
3816;DHT22;1923;48.154;11.536;2022-07-30T10:17:57;36.60;58.70
3816;DHT22;1923;48.154;11.536;2022-07-30T10:20:27;36.70;59.60
3816;DHT22;1923;48.154;11.536;2022-07-30T10:22:55;37.00;59.10
3816;DHT22;1923;48.154;11.536;2022-07-30T10:25:25;37.20;56.70
3816;DHT22;1923;48.154;11.536;2022-07-30T10:27:54;36.90;55.10
3816;DHT22;1923;48.154;11.536;2022-07-30T10:30:24;36.30;53.70
3816;DHT22;1923;48.154;11.536;2022-07-30T10:32:59;35.50;54.60
3816;DHT22;1923;48.154;11.536;2022-07-30T10:35:28;35.00;57.60
3816;DHT22;1923;48.154;11.536;2022-07-30T10:38:06;34.30;58.10
3816;DHT22;1923;48.154;11.536;2022-07-30T10:40:46;34.30;59.90
3816;DHT22;1923;48.154;11.536;2022-07-30T10:43:44;34.50;57.30
3816;DHT22;1923;48.154;11.536;2022-07-30T10:46:26;34.10;56.00
3816;DHT22;1923;48.154;11.536;2022-07-30T10:49:08;33.30;57.80
3816;DHT22;1923;48.154;11.536;2022-07-30T10:51:46;33.70;58.90
3816;DHT22;1923;48.154;11.536;2022-07-30T10:54:39;34.00;60.60
3816;DHT22;1923;48.154;11.536;2022-07-30T10:57:09;34.10;58.30
3816;DHT22;1923;48.154;11.536;2022-07-30T11:00:11;33.80;55.20
3816;DHT22;1923;48.154;11.536;2022-07-30T11:03:15;33.20;56.70
3816;DHT22;1923;48.154;11.536;2022-07-30T11:05:47;33.40;58.70
3816;DHT22;1923;48.154;11.536;2022-07-30T11:08:31;33.70;56.80
3816;DHT22;1923;48.154;11.536;2022-07-30T11:11:03;33.80;55.60
3816;DHT22;1923;48.154;11.536;2022-07-30T11:13:49;34.00;56.30
3816;DHT22;1923;48.154;11.536;2022-07-30T11:16:20;33.60;55.90
3816;DHT22;1923;48.154;11.536;2022-07-30T11:19:05;33.80;57.20
3816;DHT22;1923;48.154;11.536;2022-07-30T11:22:24;33.70;55.90
3816;DHT22;1923;48.154;11.536;2022-07-30T11:24:53;32.50;58.50
3816;DHT22;1923;48.154;11.536;2022-07-30T11:27:39;31.80;59.60
3816;DHT22;1923;48.154;11.536;2022-07-30T11:30:31;30.80;59.80
3816;DHT22;1923;48.154;11.536;2022-07-30T11:33:22;30.00;61.80
3816;DHT22;1923;48.154;11.536;2022-07-30T11:36:10;29.30;63.10
3816;DHT22;1923;48.154;11.536;2022-07-30T11:38:57;28.90;65.70
3816;DHT22;1923;48.154;11.536;2022-07-30T11:41:33;28.60;67.30
3816;DHT22;1923;48.154;11.536;2022-07-30T11:44:26;28.50;67.80
3816;DHT22;1923;48.154;11.536;2022-07-30T11:46:55;28.60;68.10
3816;DHT22;1923;48.154;11.536;2022-07-30T11:49:23;28.50;68.40
3816;DHT22;1923;48.154;11.536;2022-07-30T11:51:51;28.40;68.30
3816;DHT22;1923;48.154;11.536;2022-07-30T11:54:21;28.00;68.00
3816;DHT22;1923;48.154;11.536;2022-07-30T11:56:50;27.70;68.70
3816;DHT22;1923;48.154;11.536;2022-07-30T11:59:18;27.40;69.80
3816;DHT22;1923;48.154;11.536;2022-07-30T12:01:51;27.40;70.20
3816;DHT22;1923;48.154;11.536;2022-07-30T12:04:21;27.20;70.50
3816;DHT22;1923;48.154;11.536;2022-07-30T12:06:50;27.20;71.50
3816;DHT22;1923;48.154;11.536;2022-07-30T12:09:24;27.20;70.60
3816;DHT22;1923;48.154;11.536;2022-07-30T12:11:55;27.30;70.10
3816;DHT22;1923;48.154;11.536;2022-07-30T12:14:23;27.30;70.20
3816;DHT22;1923;48.154;11.536;2022-07-30T12:16:52;27.30;69.80
3816;DHT22;1923;48.154;11.536;2022-07-30T12:19:21;27.20;70.10
3816;DHT22;1923;48.154;11.536;2022-07-30T12:21:49;27.10;69.60
3816;DHT22;1923;48.154;11.536;2022-07-30T12:24:25;27.20;67.70
3816;DHT22;1923;48.154;11.536;2022-07-30T12:27:03;27.10;65.60
3816;DHT22;1923;48.154;11.536;2022-07-30T12:29:32;26.90;66.60
3816;DHT22;1923;48.154;11.536;2022-07-30T12:32:01;27.00;66.80
3816;DHT22;1923;48.154;11.536;2022-07-30T12:34:29;27.10;67.10
3816;DHT22;1923;48.154;11.536;2022-07-30T12:37:06;27.10;67.60
3816;DHT22;1923;48.154;11.536;2022-07-30T12:39:37;27.20;67.50
3816;DHT22;1923;48.154;11.536;2022-07-30T12:42:06;27.20;66.70
3816;DHT22;1923;48.154;11.536;2022-07-30T12:44:37;27.00;64.90
3816;DHT22;1923;48.154;11.536;2022-07-30T12:47:18;26.60;65.20
3816;DHT22;1923;48.154;11.536;2022-07-30T12:49:47;26.50;65.70
3816;DHT22;1923;48.154;11.536;2022-07-30T12:52:20;26.20;65.30
3816;DHT22;1923;48.154;11.536;2022-07-30T12:55:00;26.00;66.60
3816;DHT22;1923;48.154;11.536;2022-07-30T12:57:53;26.00;66.50
3816;DHT22;1923;48.154;11.536;2022-07-30T13:00:24;25.90;65.50
3816;DHT22;1923;48.154;11.536;2022-07-30T13:02:54;25.90;65.60
3816;DHT22;1923;48.154;11.536;2022-07-30T13:05:43;25.90;66.30
3816;DHT22;1923;48.154;11.536;2022-07-30T13:08:12;25.90;67.70
3816;DHT22;1923;48.154;11.536;2022-07-30T13:10:55;25.90;68.40
3816;DHT22;1923;48.154;11.536;2022-07-30T13:13:25;25.80;67.60
3816;DHT22;1923;48.154;11.536;2022-07-30T13:15:57;25.60;67.30
3816;DHT22;1923;48.154;11.536;2022-07-30T13:18:27;25.50;65.90
3816;DHT22;1923;48.154;11.536;2022-07-30T13:20:55;25.50;66.60
3816;DHT22;1923;48.154;11.536;2022-07-30T13:23:24;25.60;68.10
3816;DHT22;1923;48.154;11.536;2022-07-30T13:26:01;25.80;67.70
3816;DHT22;1923;48.154;11.536;2022-07-30T13:28:29;25.90;67.40
3816;DHT22;1923;48.154;11.536;2022-07-30T13:30:59;26.00;66.50
3816;DHT22;1923;48.154;11.536;2022-07-30T13:33:27;26.00;66.20
3816;DHT22;1923;48.154;11.536;2022-07-30T13:35:55;26.10;67.30
3816;DHT22;1923;48.154;11.536;2022-07-30T13:38:23;26.30;66.60
3816;DHT22;1923;48.154;11.536;2022-07-30T13:40:51;26.40;67.70
3816;DHT22;1923;48.154;11.536;2022-07-30T13:43:25;26.40;66.90
3816;DHT22;1923;48.154;11.536;2022-07-30T13:45:53;26.50;67.20
3816;DHT22;1923;48.154;11.536;2022-07-30T13:48:25;26.50;65.90
3816;DHT22;1923;48.154;11.536;2022-07-30T13:50:53;26.50;65.70
3816;DHT22;1923;48.154;11.536;2022-07-30T13:53:22;26.30;65.80
3816;DHT22;1923;48.154;11.536;2022-07-30T13:55:50;26.00;66.50
3816;DHT22;1923;48.154;11.536;2022-07-30T13:58:18;26.00;67.10
3816;DHT22;1923;48.154;11.536;2022-07-30T14:00:47;26.00;66.20
3816;DHT22;1923;48.154;11.536;2022-07-30T14:03:15;26.10;67.40
3816;DHT22;1923;48.154;11.536;2022-07-30T14:05:44;26.10;67.20
3816;DHT22;1923;48.154;11.536;2022-07-30T14:08:12;26.10;66.90
3816;DHT22;1923;48.154;11.536;2022-07-30T14:10:40;26.20;67.10
3816;DHT22;1923;48.154;11.536;2022-07-30T14:13:08;26.20;66.30
3816;DHT22;1923;48.154;11.536;2022-07-30T14:15:48;26.30;66.40
3816;DHT22;1923;48.154;11.536;2022-07-30T14:18:16;26.30;66.80
3816;DHT22;1923;48.154;11.536;2022-07-30T14:20:44;26.40;65.90
3816;DHT22;1923;48.154;11.536;2022-07-30T14:23:15;26.50;65.60
3816;DHT22;1923;48.154;11.536;2022-07-30T14:25:43;26.40;65.10
3816;DHT22;1923;48.154;11.536;2022-07-30T14:28:11;26.50;65.90
3816;DHT22;1923;48.154;11.536;2022-07-30T14:30:40;26.50;65.30
3816;DHT22;1923;48.154;11.536;2022-07-30T14:33:09;26.40;65.80
3816;DHT22;1923;48.154;11.536;2022-07-30T14:35:37;26.40;65.90
3816;DHT22;1923;48.154;11.536;2022-07-30T14:38:06;26.40;66.10
3816;DHT22;1923;48.154;11.536;2022-07-30T14:40:34;26.50;65.90
3816;DHT22;1923;48.154;11.536;2022-07-30T14:43:02;26.40;65.20
3816;DHT22;1923;48.154;11.536;2022-07-30T14:45:32;26.40;65.20
3816;DHT22;1923;48.154;11.536;2022-07-30T14:48:02;26.30;65.80
3816;DHT22;1923;48.154;11.536;2022-07-30T14:50:31;26.40;65.90
3816;DHT22;1923;48.154;11.536;2022-07-30T14:53:17;26.30;65.80
3816;DHT22;1923;48.154;11.536;2022-07-30T14:55:48;26.30;66.10
3816;DHT22;1923;48.154;11.536;2022-07-30T14:58:16;26.20;64.70
3816;DHT22;1923;48.154;11.536;2022-07-30T15:00:44;26.20;65.20
3816;DHT22;1923;48.154;11.536;2022-07-30T15:03:14;26.10;65.70
3816;DHT22;1923;48.154;11.536;2022-07-30T15:05:44;26.10;66.20
3816;DHT22;1923;48.154;11.536;2022-07-30T15:08:17;26.30;66.80
3816;DHT22;1923;48.154;11.536;2022-07-30T15:10:46;26.30;66.80
3816;DHT22;1923;48.154;11.536;2022-07-30T15:13:14;26.30;67.40
3816;DHT22;1923;48.154;11.536;2022-07-30T15:15:44;26.40;67.40
3816;DHT22;1923;48.154;11.536;2022-07-30T15:18:13;26.30;66.00
3816;DHT22;1923;48.154;11.536;2022-07-30T15:20:41;26.60;66.70
3816;DHT22;1923;48.154;11.536;2022-07-30T15:23:10;26.50;64.80
3816;DHT22;1923;48.154;11.536;2022-07-30T15:25:40;26.40;64.50
3816;DHT22;1923;48.154;11.536;2022-07-30T15:28:08;26.50;65.50
3816;DHT22;1923;48.154;11.536;2022-07-30T15:30:36;26.60;66.00
3816;DHT22;1923;48.154;11.536;2022-07-30T15:33:04;26.70;65.70
3816;DHT22;1923;48.154;11.536;2022-07-30T15:35:34;26.80;66.00
3816;DHT22;1923;48.154;11.536;2022-07-30T15:38:02;26.90;65.70
3816;DHT22;1923;48.154;11.536;2022-07-30T15:40:32;26.90;65.50
3816;DHT22;1923;48.154;11.536;2022-07-30T15:43:00;26.90;66.30
3816;DHT22;1923;48.154;11.536;2022-07-30T15:45:35;27.00;65.30
3816;DHT22;1923;48.154;11.536;2022-07-30T15:48:22;27.10;65.70
3816;DHT22;1923;48.154;11.536;2022-07-30T15:50:54;27.00;64.20
3816;DHT22;1923;48.154;11.536;2022-07-30T15:53:26;26.90;64.60
3816;DHT22;1923;48.154;11.536;2022-07-30T15:55:55;26.90;64.80
3816;DHT22;1923;48.154;11.536;2022-07-30T15:58:24;26.90;64.50
3816;DHT22;1923;48.154;11.536;2022-07-30T16:00:52;26.90;64.60
3816;DHT22;1923;48.154;11.536;2022-07-30T16:03:20;26.80;64.60
3816;DHT22;1923;48.154;11.536;2022-07-30T16:05:48;26.80;64.80
3816;DHT22;1923;48.154;11.536;2022-07-30T16:08:18;26.80;64.10
3816;DHT22;1923;48.154;11.536;2022-07-30T16:10:46;26.60;63.50
3816;DHT22;1923;48.154;11.536;2022-07-30T16:13:16;26.60;64.50
3816;DHT22;1923;48.154;11.536;2022-07-30T16:15:44;26.70;65.40